Time;durP1;ratioP1;P1;durP2;ratioP2;P2;SDS_P1;SDS_P2;PMS_P1;PMS_P2;Temp;Humidity;BMP_temperature;BMP_pressure;BME280_temperature;BME280_humidity;BME280_pressure;Samples;Min_cycle;Max_cycle;Signal;HPM_P1;HPM_P2
2020/12/21 00:00:03;;;;;;;;;;;8.20;78.70;;;;;;4969071;28;117536;-90
2020/12/21 00:02:29;;;;;;;;;;;8.20;78.60;;;;;;4952656;28;117443;-90
2020/12/21 00:04:54;;;;;;;;;;;8.20;78.70;;;;;;4968125;28;121195;-90
2020/12/21 00:07:20;;;;;;;;;;;8.20;78.70;;;;;;4967553;28;120023;-90
2020/12/21 00:09:45;;;;;;;;;;;8.20;78.70;;;;;;4968947;28;117344;-90
2020/12/21 00:12:11;;;;;;;;;;;8.20;78.70;;;;;;4969328;28;117402;-90
2020/12/21 00:14:36;;;;;;;;;;;8.20;78.70;;;;;;4967962;28;119767;-90
2020/12/21 00:17:02;;;;;;;;;;;8.20;78.70;;;;;;4967697;28;120532;-90
2020/12/21 00:19:29;;;;;;;;;;;8.20;78.70;;;;;;4968772;28;117613;-89
2020/12/21 00:21:54;;;;;;;;;;;8.20;78.70;;;;;;4969493;28;118036;-90
2020/12/21 00:24:20;;;;;;;;;;;8.20;78.70;;;;;;4967874;28;121099;-90
2020/12/21 00:26:46;;;;;;;;;;;8.20;78.70;;;;;;4966974;28;120537;-90
2020/12/21 00:29:12;;;;;;;;;;;8.20;78.60;;;;;;4952341;28;117591;-90
2020/12/21 00:31:37;;;;;;;;;;;8.20;78.70;;;;;;4968808;28;117809;-90
2020/12/21 00:34:03;;;;;;;;;;;8.20;78.70;;;;;;4967503;28;121016;-90
2020/12/21 00:36:29;;;;;;;;;;;8.20;78.70;;;;;;4950835;28;119930;-90
2020/12/21 00:38:55;;;;;;;;;;;8.20;78.70;;;;;;4968218;28;117506;-90
2020/12/21 00:41:21;;;;;;;;;;;8.20;78.70;;;;;;4968906;28;117366;-90
2020/12/21 00:43:47;;;;;;;;;;;8.20;78.70;;;;;;4950865;28;119952;-90
2020/12/21 00:46:13;;;;;;;;;;;8.20;78.70;;;;;;4950771;28;120599;-90
2020/12/21 00:48:39;;;;;;;;;;;8.20;78.70;;;;;;4951070;28;117385;-90
2020/12/21 00:51:05;;;;;;;;;;;8.20;78.70;;;;;;4967928;28;117780;-90
2020/12/21 00:53:30;;;;;;;;;;;8.20;78.70;;;;;;4950824;28;120056;-90
2020/12/21 00:55:56;;;;;;;;;;;8.20;78.70;;;;;;4966956;28;120163;-90
2020/12/21 00:58:21;;;;;;;;;;;8.20;78.70;;;;;;4967863;28;117514;-90
2020/12/21 01:00:47;;;;;;;;;;;8.20;78.70;;;;;;4968190;28;117965;-90
2020/12/21 01:03:14;;;;;;;;;;;8.20;78.70;;;;;;4966969;28;121158;-90
2020/12/21 01:05:39;;;;;;;;;;;8.20;78.70;;;;;;4950566;28;119286;-90
2020/12/21 01:08:05;;;;;;;;;;;8.20;78.70;;;;;;4967986;28;117469;-90
2020/12/21 01:10:30;;;;;;;;;;;8.20;78.70;;;;;;4968350;28;117638;-90
2020/12/21 01:12:56;;;;;;;;;;;8.20;78.70;;;;;;4966893;28;120255;-90
2020/12/21 01:15:22;;;;;;;;;;;8.20;78.70;;;;;;4966473;28;119975;-90
2020/12/21 01:17:47;;;;;;;;;;;8.20;78.70;;;;;;4967586;28;117896;-90
2020/12/21 01:20:12;;;;;;;;;;;8.20;78.70;;;;;;4967538;28;117797;-90
2020/12/21 01:22:39;;;;;;;;;;;8.20;78.70;;;;;;4966860;28;121463;-90
2020/12/21 01:25:05;;;;;;;;;;;8.20;78.70;;;;;;4950782;28;120271;-90
2020/12/21 01:27:31;;;;;;;;;;;8.20;78.70;;;;;;4951317;28;117562;-90
2020/12/21 01:29:56;;;;;;;;;;;8.20;78.70;;;;;;4968041;28;117480;-90
2020/12/21 01:32:22;;;;;;;;;;;8.20;78.70;;;;;;4966883;28;119901;-90
2020/12/21 01:34:47;;;;;;;;;;;8.20;78.70;;;;;;4966432;28;119578;-90
2020/12/21 01:37:13;;;;;;;;;;;8.20;78.70;;;;;;4950844;28;117595;-90
2020/12/21 01:39:38;;;;;;;;;;;8.20;78.70;;;;;;4967125;28;117631;-90
2020/12/21 01:42:04;;;;;;;;;;;8.20;78.70;;;;;;4966446;28;120142;-90
2020/12/21 01:44:29;;;;;;;;;;;8.20;78.70;;;;;;4966445;28;119984;-90
2020/12/21 01:46:55;;;;;;;;;;;8.20;78.70;;;;;;4967277;28;117477;-90
2020/12/21 01:49:22;;;;;;;;;;;8.20;78.70;;;;;;4967828;28;117211;-90
2020/12/21 01:51:49;;;;;;;;;;;8.20;78.70;;;;;;4966191;28;139473;-90
2020/12/21 01:54:15;;;;;;;;;;;8.20;78.70;;;;;;4949966;28;120398;-90
2020/12/21 01:56:41;;;;;;;;;;;8.20;78.70;;;;;;4967174;28;117581;-90
2020/12/21 01:59:06;;;;;;;;;;;8.20;78.70;;;;;;4967969;28;117887;-90
2020/12/21 02:01:32;;;;;;;;;;;8.20;78.60;;;;;;4970067;28;121294;-90
2020/12/21 02:03:57;;;;;;;;;;;8.20;78.70;;;;;;4969421;28;119406;-90
2020/12/21 02:06:23;;;;;;;;;;;8.20;78.70;;;;;;4970516;28;117525;-90
2020/12/21 02:08:48;;;;;;;;;;;8.20;78.70;;;;;;4971284;28;117504;-90
2020/12/21 02:11:14;;;;;;;;;;;8.20;78.70;;;;;;4970244;28;120348;-90
2020/12/21 02:13:39;;;;;;;;;;;8.20;78.60;;;;;;4969811;28;119182;-90
2020/12/21 02:16:05;;;;;;;;;;;8.20;78.60;;;;;;4970829;28;117450;-90
2020/12/21 02:18:30;;;;;;;;;;;8.20;78.70;;;;;;4970744;28;117914;-90
2020/12/21 02:20:56;;;;;;;;;;;8.20;78.70;;;;;;4969888;28;121218;-90
2020/12/21 02:23:21;;;;;;;;;;;8.20;78.60;;;;;;4969660;28;119140;-90
2020/12/21 02:25:47;;;;;;;;;;;8.20;78.60;;;;;;4970546;28;117448;-90
2020/12/21 02:28:12;;;;;;;;;;;8.20;78.70;;;;;;4970390;28;117814;-90
2020/12/21 02:30:38;;;;;;;;;;;8.20;78.60;;;;;;4970006;28;120695;-90
2020/12/21 02:33:06;;;;;;;;;;;8.20;78.60;;;;;;4969858;28;119419;-90
2020/12/21 02:35:33;;;;;;;;;;;8.20;78.60;;;;;;4970323;28;117545;-90
2020/12/21 02:37:58;;;;;;;;;;;8.20;78.60;;;;;;4954467;28;117551;-90
2020/12/21 02:40:24;;;;;;;;;;;8.20;78.60;;;;;;4969598;28;121184;-90
2020/12/21 02:42:49;;;;;;;;;;;8.20;78.60;;;;;;4969443;28;119933;-90
2020/12/21 02:45:15;;;;;;;;;;;8.20;78.70;;;;;;4970149;28;117526;-90
2020/12/21 02:47:40;;;;;;;;;;;8.20;78.60;;;;;;4970056;28;117357;-90
2020/12/21 02:50:06;;;;;;;;;;;8.20;78.60;;;;;;4968971;28;119928;-90
2020/12/21 02:52:31;;;;;;;;;;;8.20;78.60;;;;;;4968446;28;120008;-90
2020/12/21 02:54:57;;;;;;;;;;;8.20;78.60;;;;;;4969733;28;117634;-90
2020/12/21 02:57:22;;;;;;;;;;;8.20;78.60;;;;;;4970023;28;117866;-90
2020/12/21 02:59:48;;;;;;;;;;;8.20;78.50;;;;;;4968641;28;119731;-90
2020/12/21 03:02:13;;;;;;;;;;;8.20;78.50;;;;;;4968861;28;120175;-90
2020/12/21 03:04:39;;;;;;;;;;;8.20;78.60;;;;;;4969644;28;117311;-90
2020/12/21 03:07:04;;;;;;;;;;;8.20;78.60;;;;;;4969841;28;117904;-90
2020/12/21 03:09:30;;;;;;;;;;;8.20;78.60;;;;;;4969409;28;120177;-90
2020/12/21 03:11:55;;;;;;;;;;;8.20;78.50;;;;;;4968081;28;120295;-90
2020/12/21 03:14:21;;;;;;;;;;;8.20;78.60;;;;;;4969364;28;117585;-90
2020/12/21 03:16:47;;;;;;;;;;;8.20;78.50;;;;;;4969415;28;117565;-90
2020/12/21 03:19:12;;;;;;;;;;;8.20;78.60;;;;;;4967846;28;120316;-90
2020/12/21 03:21:38;;;;;;;;;;;8.20;78.60;;;;;;4968611;28;120865;-90
2020/12/21 03:24:03;;;;;;;;;;;8.20;78.50;;;;;;4969443;28;117555;-90
2020/12/21 03:26:29;;;;;;;;;;;8.20;78.50;;;;;;4969576;28;117713;-90
2020/12/21 03:28:56;;;;;;;;;;;8.20;78.50;;;;;;4968478;28;121023;-90
2020/12/21 03:31:21;;;;;;;;;;;8.20;78.50;;;;;;4952346;28;120035;-90
2020/12/21 03:33:47;;;;;;;;;;;8.20;78.50;;;;;;4969569;28;117654;-90
2020/12/21 03:36:13;;;;;;;;;;;8.20;78.50;;;;;;4969324;28;117894;-90
2020/12/21 03:38:38;;;;;;;;;;;8.20;78.50;;;;;;4968279;28;120207;-90
2020/12/21 03:41:04;;;;;;;;;;;8.20;78.50;;;;;;4967306;28;120369;-90
2020/12/21 03:43:29;;;;;;;;;;;8.20;78.50;;;;;;4969104;28;117684;-90
2020/12/21 03:45:55;;;;;;;;;;;8.20;78.50;;;;;;4969354;28;117647;-90
2020/12/21 03:48:20;;;;;;;;;;;8.20;78.50;;;;;;4968511;28;119999;-90
2020/12/21 03:50:46;;;;;;;;;;;8.20;78.50;;;;;;4952375;28;119214;-90
2020/12/21 03:53:12;;;;;;;;;;;8.20;78.50;;;;;;4969071;28;117571;-90
2020/12/21 03:55:37;;;;;;;;;;;8.20;78.50;;;;;;4969461;28;117896;-90
2020/12/21 03:58:03;;;;;;;;;;;8.20;78.50;;;;;;4968270;28;121267;-90
2020/12/21 04:00:29;;;;;;;;;;;8.20;78.50;;;;;;4967924;28;118882;-90
2020/12/21 04:02:55;;;;;;;;;;;8.20;78.50;;;;;;4969226;28;117584;-90
2020/12/21 04:05:21;;;;;;;;;;;8.20;78.50;;;;;;4968467;28;117781;-90
2020/12/21 04:07:47;;;;;;;;;;;8.20;78.50;;;;;;4967477;28;121370;-90
2020/12/21 04:10:12;;;;;;;;;;;8.20;78.50;;;;;;4951655;28;119199;-90
2020/12/21 04:12:38;;;;;;;;;;;8.20;78.40;;;;;;4968897;28;117295;-90
2020/12/21 04:15:03;;;;;;;;;;;8.20;78.50;;;;;;4969118;28;117406;-90
2020/12/21 04:17:29;;;;;;;;;;;8.20;78.40;;;;;;4950920;28;121094;-90
2020/12/21 04:19:54;;;;;;;;;;;8.20;78.40;;;;;;4967154;28;119211;-90
2020/12/21 04:22:20;;;;;;;;;;;8.20;78.40;;;;;;4967878;28;117552;-90
2020/12/21 04:24:45;;;;;;;;;;;8.20;78.50;;;;;;4968787;28;117765;-90
2020/12/21 04:27:11;;;;;;;;;;;8.20;78.40;;;;;;4967439;28;121456;-90
2020/12/21 04:29:37;;;;;;;;;;;8.20;78.50;;;;;;4967783;28;117353;-90
2020/12/21 04:32:02;;;;;;;;;;;8.20;78.50;;;;;;4968335;28;117498;-90
2020/12/21 04:34:28;;;;;;;;;;;8.20;78.50;;;;;;4968665;28;117621;-90
2020/12/21 04:36:53;;;;;;;;;;;8.20;78.40;;;;;;4967357;28;120224;-90
2020/12/21 04:39:21;;;;;;;;;;;8.20;78.40;;;;;;4967276;28;119528;-90
2020/12/21 04:41:53;;;;;;;;;;;8.20;78.40;;;;;;4968809;28;117299;-90
2020/12/21 04:44:19;;;;;;;;;;;8.20;78.50;;;;;;4952138;28;117920;-90
2020/12/21 04:46:45;;;;;;;;;;;8.20;78.40;;;;;;4950886;28;121421;-89
2020/12/21 04:49:11;;;;;;;;;;;8.20;78.40;;;;;;4950853;28;120461;-90
2020/12/21 04:51:36;;;;;;;;;;;8.20;78.40;;;;;;4968304;28;117334;-90
2020/12/21 04:54:02;;;;;;;;;;;8.20;78.40;;;;;;4968061;28;117778;-90
2020/12/21 04:56:27;;;;;;;;;;;8.20;78.40;;;;;;4966687;28;120239;-90
2020/12/21 04:58:53;;;;;;;;;;;8.20;78.40;;;;;;4967338;28;119109;-90
2020/12/21 05:01:18;;;;;;;;;;;8.20;78.30;;;;;;4968044;28;117533;-90
2020/12/21 05:03:50;;;;;;;;;;;8.20;78.30;;;;;;4968537;28;117835;-90
2020/12/21 05:06:16;;;;;;;;;;;8.20;78.40;;;;;;4966924;28;117896;-90
2020/12/21 05:08:41;;;;;;;;;;;8.20;78.40;;;;;;4967049;28;120342;-90
2020/12/21 05:11:07;;;;;;;;;;;8.20;78.40;;;;;;4968206;28;117258;-90
2020/12/21 05:13:32;;;;;;;;;;;8.20;78.40;;;;;;4968174;28;117370;-90
2020/12/21 05:15:58;;;;;;;;;;;8.20;78.30;;;;;;4950284;28;120187;-90
2020/12/21 05:18:24;;;;;;;;;;;8.20;78.30;;;;;;4966257;28;119411;-90
2020/12/21 05:20:58;;;;;;;;;;;8.20;78.40;;;;;;4968022;28;117390;-90
2020/12/21 05:23:24;;;;;;;;;;;8.20;78.30;;;;;;4951665;28;117727;-90
2020/12/21 05:25:56;;;;;;;;;;;8.20;78.30;;;;;;4966694;28;120113;-90
2020/12/21 05:28:22;;;;;;;;;;;8.20;78.30;;;;;;4950477;28;119428;-90
2020/12/21 05:31:03;;;;;;;;;;;8.20;78.30;;;;;;4967919;28;117592;-90
2020/12/21 05:33:29;;;;;;;;;;;8.20;78.30;;;;;;4952247;28;118155;-90
2020/12/21 05:35:55;;;;;;;;;;;8.20;78.40;;;;;;4970200;28;120263;-90
2020/12/21 05:38:27;;;;;;;;;;;8.20;78.30;;;;;;4953906;28;120379;-90
2020/12/21 05:40:53;;;;;;;;;;;8.20;78.30;;;;;;4954656;28;117597;-90
2020/12/21 05:43:25;;;;;;;;;;;8.20;78.30;;;;;;4954301;28;117559;-90
2020/12/21 05:46:09;;;;;;;;;;;8.20;78.30;;;;;;4953707;28;120938;-90
2020/12/21 05:48:36;;;;;;;;;;;8.20;78.30;;;;;;4969967;28;119317;-90
2020/12/21 05:51:02;;;;;;;;;;;8.20;78.30;;;;;;4954378;28;117611;-90
2020/12/21 05:53:32;;;;;;;;;;;8.20;78.30;;;;;;4954864;28;117448;-90
2020/12/21 05:55:58;;;;;;;;;;;8.20;78.30;;;;;;4953440;28;120082;-90
2020/12/21 05:58:23;;;;;;;;;;;8.20;78.30;;;;;;4969774;28;119192;-90
2020/12/21 06:00:49;;;;;;;;;;;8.20;78.90;;;;;;4971013;28;117552;-90
2020/12/21 06:03:15;;;;;;;;;;;8.20;78.20;;;;;;4971047;28;117409;-90
2020/12/21 06:05:40;;;;;;;;;;;8.20;78.30;;;;;;4969675;28;118718;-90
2020/12/21 06:08:06;;;;;;;;;;;8.20;78.30;;;;;;4968803;28;119883;-90
2020/12/21 06:10:31;;;;;;;;;;;8.20;78.30;;;;;;4970551;28;117694;-90
2020/12/21 06:12:57;;;;;;;;;;;8.20;78.20;;;;;;4970886;28;117899;-88
2020/12/21 06:15:24;;;;;;;;;;;8.20;78.20;;;;;;4969179;28;120458;-88
2020/12/21 06:17:49;;;;;;;;;;;8.20;78.20;;;;;;4952908;28;119148;-88
2020/12/21 06:20:15;;;;;;;;;;;8.20;78.20;;;;;;4970041;28;117437;-89
2020/12/21 06:22:40;;;;;;;;;;;8.20;78.20;;;;;;4970229;28;117936;-88
2020/12/21 06:25:06;;;;;;;;;;;8.20;78.20;;;;;;4969198;28;120223;-88
2020/12/21 06:27:38;;;;;;;;;;;8.20;78.20;;;;;;4952631;28;119473;-88
2020/12/21 06:30:05;;;;;;;;;;;8.20;78.20;;;;;;4953456;28;117534;-88
2020/12/21 06:32:31;;;;;;;;;;;8.20;78.20;;;;;;4953508;28;117357;-88
2020/12/21 06:34:57;;;;;;;;;;;8.20;78.20;;;;;;4968746;28;120253;-88
2020/12/21 06:37:23;;;;;;;;;;;8.20;78.20;;;;;;4952452;28;119890;-88
2020/12/21 06:40:02;;;;;;;;;;;8.20;78.20;;;;;;4969744;28;117577;-88
2020/12/21 06:42:27;;;;;;;;;;;8.20;78.20;;;;;;4953752;28;117855;-88
2020/12/21 06:44:57;;;;;;;;;;;8.20;78.20;;;;;;4968173;28;121268;-88
2020/12/21 06:47:23;;;;;;;;;;;8.20;78.20;;;;;;4952239;28;120596;-88
2020/12/21 06:49:48;;;;;;;;;;;8.20;78.20;;;;;;4953724;28;117634;-88
2020/12/21 06:52:14;;;;;;;;;;;8.20;78.10;;;;;;4969808;28;117333;-88
2020/12/21 06:54:39;;;;;;;;;;;8.20;78.20;;;;;;4968494;28;120126;-88
2020/12/21 06:57:05;;;;;;;;;;;8.20;78.20;;;;;;4967828;28;119279;-88
2020/12/21 06:59:30;;;;;;;;;;;8.20;78.20;;;;;;4969263;28;117805;-88
2020/12/21 07:01:56;;;;;;;;;;;8.20;78.20;;;;;;4969685;28;117933;-88
2020/12/21 07:04:28;;;;;;;;;;;8.20;78.20;;;;;;4968528;28;121098;-88
2020/12/21 07:06:54;;;;;;;;;;;8.20;78.10;;;;;;4952025;28;120191;-88
2020/12/21 07:09:22;;;;;;;;;;;8.20;78.10;;;;;;4969184;28;117540;-88
2020/12/21 07:11:51;;;;;;;;;;;8.20;78.10;;;;;;4969433;28;117640;-88
2020/12/21 07:14:17;;;;;;;;;;;8.20;78.10;;;;;;4952151;28;120176;-88
2020/12/21 07:16:42;;;;;;;;;;;8.20;78.10;;;;;;4967878;28;119593;-88
2020/12/21 07:19:09;;;;;;;;;;;8.20;78.20;;;;;;4968379;28;117384;-88
2020/12/21 07:21:35;;;;;;;;;;;8.20;78.10;;;;;;4952692;28;117837;-88
2020/12/21 07:24:00;;;;;;;;;;;8.20;78.10;;;;;;4968374;28;119997;-88
2020/12/21 07:26:26;;;;;;;;;;;8.20;78.10;;;;;;4967712;28;120306;-88
2020/12/21 07:28:52;;;;;;;;;;;8.20;78.10;;;;;;4968953;28;117505;-88
2020/12/21 07:31:18;;;;;;;;;;;8.10;78.00;;;;;;4969408;28;117861;-88
2020/12/21 07:33:57;;;;;;;;;;;8.20;78.10;;;;;;4951794;28;120303;-88
2020/12/21 07:36:23;;;;;;;;;;;8.20;78.10;;;;;;4951310;28;120396;-88
2020/12/21 07:38:49;;;;;;;;;;;8.20;78.10;;;;;;4952792;28;117445;-88
2020/12/21 07:41:15;;;;;;;;;;;8.20;78.00;;;;;;4969141;28;117306;-88
2020/12/21 07:43:41;;;;;;;;;;;8.20;78.00;;;;;;4967912;28;120276;-88
2020/12/21 07:46:11;;;;;;;;;;;8.20;78.00;;;;;;4950585;28;119417;-88
2020/12/21 07:48:36;;;;;;;;;;;8.20;78.00;;;;;;4952469;28;117480;-88
2020/12/21 07:51:05;;;;;;;;;;;8.20;78.10;;;;;;4968926;28;117810;-88
2020/12/21 07:53:32;;;;;;;;;;;8.10;77.90;;;;;;4951552;28;120778;-88
2020/12/21 07:55:57;;;;;;;;;;;8.20;78.00;;;;;;4951183;28;119173;-88
2020/12/21 07:58:23;;;;;;;;;;;8.20;78.00;;;;;;4968344;28;117749;-88
2020/12/21 08:00:55;;;;;;;;;;;8.20;78.00;;;;;;4968745;28;117561;-88
2020/12/21 08:03:21;;;;;;;;;;;8.20;78.00;;;;;;4951455;28;120211;-88
2020/12/21 08:05:46;;;;;;;;;;;8.10;77.90;;;;;;4967572;28;117863;-88
2020/12/21 08:08:12;;;;;;;;;;;8.20;78.60;;;;;;4968202;28;117615;-88
2020/12/21 08:10:37;;;;;;;;;;;8.20;78.00;;;;;;4968184;28;117868;-88
2020/12/21 08:13:03;;;;;;;;;;;8.10;77.90;;;;;;4967272;28;121147;-88
2020/12/21 08:15:28;;;;;;;;;;;8.10;77.90;;;;;;4967257;28;119243;-88
2020/12/21 08:17:54;;;;;;;;;;;8.20;78.00;;;;;;4968194;28;117518;-88
2020/12/21 08:20:19;;;;;;;;;;;8.10;78.00;;;;;;4968292;28;117573;-88
2020/12/21 08:22:45;;;;;;;;;;;8.10;77.90;;;;;;4967202;28;121272;-88
2020/12/21 08:25:14;;;;;;;;;;;8.10;77.90;;;;;;4967194;28;119314;-88
2020/12/21 08:27:43;;;;;;;;;;;8.20;78.00;;;;;;4951852;28;117923;-88
2020/12/21 08:30:15;;;;;;;;;;;8.10;78.00;;;;;;4952278;28;117865;-88
2020/12/21 08:32:41;;;;;;;;;;;8.10;77.90;;;;;;4950821;28;121042;-87
2020/12/21 08:35:06;;;;;;;;;;;8.10;77.90;;;;;;4966427;28;119455;-88
2020/12/21 08:37:32;;;;;;;;;;;8.10;77.90;;;;;;4967603;28;117787;-88
2020/12/21 08:40:07;;;;;;;;;;;8.10;77.90;;;;;;4951909;28;117804;-88
2020/12/21 08:42:33;;;;;;;;;;;8.10;77.90;;;;;;4950783;28;121120;-88
2020/12/21 08:44:59;;;;;;;;;;;8.10;77.90;;;;;;4950934;28;120367;-88
2020/12/21 08:47:24;;;;;;;;;;;8.10;77.90;;;;;;4967823;28;117701;-88
2020/12/21 08:49:50;;;;;;;;;;;8.10;77.90;;;;;;4968451;28;117419;-88
2020/12/21 08:52:15;;;;;;;;;;;8.20;78.00;;;;;;4967190;28;121294;-88
2020/12/21 08:54:41;;;;;;;;;;;8.10;78.00;;;;;;4966890;28;120435;-88
2020/12/21 08:57:07;;;;;;;;;;;8.10;78.00;;;;;;4967428;28;117294;-88
2020/12/21 08:59:32;;;;;;;;;;;8.10;77.90;;;;;;4967446;28;117918;-88
2020/12/21 09:01:58;;;;;;;;;;;8.20;78.00;;;;;;4966812;28;120162;-88
2020/12/21 09:04:23;;;;;;;;;;;8.10;77.90;;;;;;4966733;28;119305;-88
2020/12/21 09:06:49;;;;;;;;;;;8.10;78.00;;;;;;4967662;28;117699;-88
2020/12/21 09:09:14;;;;;;;;;;;8.10;78.00;;;;;;4967286;28;117394;-88
2020/12/21 09:11:40;;;;;;;;;;;8.10;78.00;;;;;;4966520;28;121190;-88
2020/12/21 09:14:05;;;;;;;;;;;8.20;78.60;;;;;;4966558;28;120557;-87
2020/12/21 09:16:31;;;;;;;;;;;8.20;78.00;;;;;;4967628;28;117715;-88
2020/12/21 09:18:57;;;;;;;;;;;8.10;78.00;;;;;;4967521;28;117498;-88
2020/12/21 09:21:26;;;;;;;;;;;8.10;78.00;;;;;;4950043;28;121345;-88
2020/12/21 09:23:53;;;;;;;;;;;8.10;78.00;;;;;;4949667;28;119563;-87
2020/12/21 09:26:18;;;;;;;;;;;8.10;78.10;;;;;;4950628;28;117392;-88
2020/12/21 09:28:44;;;;;;;;;;;8.10;78.00;;;;;;4967770;28;117281;-88
2020/12/21 09:31:10;;;;;;;;;;;8.10;78.00;;;;;;4950122;28;119938;-87
2020/12/21 09:33:36;;;;;;;;;;;8.10;78.30;;;;;;4950001;28;120275;-87
2020/12/21 09:36:01;;;;;;;;;;;8.10;78.00;;;;;;4967153;28;117570;-88
2020/12/21 09:38:27;;;;;;;;;;;8.10;78.00;;;;;;4967676;28;117750;-88
2020/12/21 09:40:52;;;;;;;;;;;8.10;78.10;;;;;;4966459;28;121249;-86
2020/12/21 09:43:18;;;;;;;;;;;8.20;78.10;;;;;;4966351;28;120408;-86
2020/12/21 09:45:43;;;;;;;;;;;8.20;78.10;;;;;;4967169;28;117422;-86
2020/12/21 09:48:09;;;;;;;;;;;8.10;78.00;;;;;;4966874;28;117815;-87
2020/12/21 09:50:34;;;;;;;;;;;8.20;78.10;;;;;;4966233;28;121431;-87
2020/12/21 09:53:00;;;;;;;;;;;8.20;78.10;;;;;;4966172;28;119510;-87
2020/12/21 09:55:25;;;;;;;;;;;8.10;78.00;;;;;;4967103;28;117517;-87
2020/12/21 09:57:51;;;;;;;;;;;8.10;78.10;;;;;;4967112;28;117769;-87
2020/12/21 10:00:16;;;;;;;;;;;8.20;78.20;;;;;;4966162;28;121213;-87
2020/12/21 10:02:42;;;;;;;;;;;8.10;78.10;;;;;;4966080;28;120472;-87
2020/12/21 10:05:07;;;;;;;;;;;8.10;78.10;;;;;;4967431;28;117418;-87
2020/12/21 10:07:33;;;;;;;;;;;8.20;78.20;;;;;;4967104;28;117383;-87
2020/12/21 10:09:59;;;;;;;;;;;8.10;78.10;;;;;;4966343;28;121125;-87
2020/12/21 10:12:24;;;;;;;;;;;8.10;78.10;;;;;;4965380;28;119220;-87
2020/12/21 10:14:50;;;;;;;;;;;8.10;78.10;;;;;;4966698;28;117530;-87
2020/12/21 10:17:15;;;;;;;;;;;8.20;78.20;;;;;;4967172;28;117893;-87
2020/12/21 10:19:40;;;;;;;;;;;8.10;78.10;;;;;;4965283;28;120077;-87
2020/12/21 10:22:06;;;;;;;;;;;8.10;78.10;;;;;;4968868;28;117393;-86
2020/12/21 10:24:31;;;;;;;;;;;8.10;78.20;;;;;;4970192;28;117560;-87
2020/12/21 10:26:57;;;;;;;;;;;8.10;78.20;;;;;;4970059;28;117581;-87
2020/12/21 10:29:23;;;;;;;;;;;8.20;78.20;;;;;;4969427;28;120119;-87
2020/12/21 10:31:48;;;;;;;;;;;8.10;78.20;;;;;;4969099;28;119527;-87
2020/12/21 10:34:14;;;;;;;;;;;8.20;78.30;;;;;;4970030;28;117526;-87
2020/12/21 10:36:40;;;;;;;;;;;8.10;78.20;;;;;;4969491;28;117545;-87
2020/12/21 10:39:05;;;;;;;;;;;8.20;78.30;;;;;;4969038;28;119640;-87
2020/12/21 10:41:31;;;;;;;;;;;8.20;78.30;;;;;;4969071;28;120239;-86
2020/12/21 10:43:57;;;;;;;;;;;8.20;78.20;;;;;;4953484;28;117205;-87
2020/12/21 10:46:23;;;;;;;;;;;8.20;78.30;;;;;;4969907;28;117390;-87
2020/12/21 10:48:48;;;;;;;;;;;8.20;78.30;;;;;;4968692;28;121196;-88
2020/12/21 10:51:14;;;;;;;;;;;8.20;78.20;;;;;;4968739;28;119303;-88
2020/12/21 10:53:39;;;;;;;;;;;8.20;78.30;;;;;;4969537;28;117339;-88
2020/12/21 10:56:10;;;;;;;;;;;8.10;78.20;;;;;;4969789;28;117928;-88
2020/12/21 10:58:35;;;;;;;;;;;8.20;78.30;;;;;;4952300;28;121095;-88
2020/12/21 11:01:01;;;;;;;;;;;8.20;78.30;;;;;;4967822;28;120774;-88
2020/12/21 11:03:26;;;;;;;;;;;8.20;78.30;;;;;;4969305;28;117742;-88
2020/12/21 11:05:52;;;;;;;;;;;8.20;78.30;;;;;;4969598;28;117282;-88
2020/12/21 11:08:17;;;;;;;;;;;8.20;78.30;;;;;;4968566;28;119629;-88
2020/12/21 11:10:43;;;;;;;;;;;8.20;78.30;;;;;;4968293;28;120659;-88
2020/12/21 11:13:08;;;;;;;;;;;8.20;78.30;;;;;;4969227;28;117267;-88
2020/12/21 11:15:37;;;;;;;;;;;8.20;78.30;;;;;;4969629;28;117458;-89
2020/12/21 11:18:02;;;;;;;;;;;8.20;78.30;;;;;;4968702;28;120516;-89
2020/12/21 11:20:28;;;;;;;;;;;8.20;78.30;;;;;;4968357;28;117631;-89
2020/12/21 11:22:54;;;;;;;;;;;8.10;78.40;;;;;;4969086;28;117541;-89
2020/12/21 11:25:19;;;;;;;;;;;8.10;78.40;;;;;;4968856;28;117963;-89
2020/12/21 11:27:45;;;;;;;;;;;8.10;78.50;;;;;;4968082;28;120097;-89
2020/12/21 11:30:11;;;;;;;;;;;8.10;78.50;;;;;;4967779;28;119445;-89
2020/12/21 11:32:37;;;;;;;;;;;8.10;78.40;;;;;;4968498;28;117560;-89
2020/12/21 11:35:03;;;;;;;;;;;8.10;78.40;;;;;;4969480;28;117636;-89
2020/12/21 11:37:28;;;;;;;;;;;8.10;78.40;;;;;;4951286;28;120336;-89
2020/12/21 11:39:54;;;;;;;;;;;8.20;78.50;;;;;;4967916;28;120583;-89
2020/12/21 11:42:19;;;;;;;;;;;8.10;78.40;;;;;;4968891;28;117534;-89
2020/12/21 11:44:46;;;;;;;;;;;8.10;78.40;;;;;;4968876;28;117346;-89
2020/12/21 11:47:11;;;;;;;;;;;8.10;78.50;;;;;;4967640;28;121469;-89
2020/12/21 11:49:37;;;;;;;;;;;8.20;78.50;;;;;;4966949;28;119447;-89
2020/12/21 11:52:03;;;;;;;;;;;8.20;78.50;;;;;;4952267;28;117563;-89
2020/12/21 11:54:29;;;;;;;;;;;8.20;78.50;;;;;;4969011;28;117546;-89
2020/12/21 11:56:55;;;;;;;;;;;8.20;78.50;;;;;;4967588;28;120119;-89
2020/12/21 11:59:20;;;;;;;;;;;8.20;78.50;;;;;;4951263;28;119961;-89
2020/12/21 12:01:46;;;;;;;;;;;8.20;78.50;;;;;;4968407;28;117498;-89
2020/12/21 12:04:11;;;;;;;;;;;8.20;78.50;;;;;;4968938;28;117811;-89
2020/12/21 12:06:37;;;;;;;;;;;8.20;78.40;;;;;;4967417;28;120365;-89
2020/12/21 12:09:02;;;;;;;;;;;8.20;78.40;;;;;;4967560;28;119236;-89
2020/12/21 12:11:28;;;;;;;;;;;8.20;78.50;;;;;;4968343;28;117620;-89
2020/12/21 12:13:53;;;;;;;;;;;8.20;78.50;;;;;;4967990;28;117283;-89
2020/12/21 12:16:22;;;;;;;;;;;8.20;78.50;;;;;;4967137;28;121001;-89
2020/12/21 12:18:48;;;;;;;;;;;8.20;78.50;;;;;;4967034;28;120405;-89
2020/12/21 12:21:20;;;;;;;;;;;8.20;78.50;;;;;;4968230;28;117449;-89
2020/12/21 12:23:45;;;;;;;;;;;8.20;78.60;;;;;;4952357;28;117738;-89
2020/12/21 12:26:14;;;;;;;;;;;8.20;78.70;;;;;;4966965;28;119757;-89
2020/12/21 12:28:39;;;;;;;;;;;8.20;78.70;;;;;;4967495;28;117724;-89
2020/12/21 12:31:05;;;;;;;;;;;8.20;78.60;;;;;;4968441;28;117628;-89
2020/12/21 12:33:30;;;;;;;;;;;8.20;78.60;;;;;;4952252;28;117857;-89
2020/12/21 12:35:56;;;;;;;;;;;8.20;78.60;;;;;;4967022;28;119698;-89
2020/12/21 12:38:21;;;;;;;;;;;8.20;78.60;;;;;;4966594;28;119166;-89
2020/12/21 12:40:47;;;;;;;;;;;8.20;78.70;;;;;;4967842;28;117330;-89
2020/12/21 12:43:13;;;;;;;;;;;8.20;78.60;;;;;;4967309;28;117365;-89
2020/12/21 12:45:38;;;;;;;;;;;8.20;78.60;;;;;;4966739;28;120996;-89
2020/12/21 12:48:04;;;;;;;;;;;8.20;78.60;;;;;;4966925;28;120399;-89
2020/12/21 12:50:29;;;;;;;;;;;8.20;78.60;;;;;;4967815;28;117210;-89
2020/12/21 12:52:55;;;;;;;;;;;8.20;78.60;;;;;;4968243;28;117384;-89
2020/12/21 12:55:20;;;;;;;;;;;8.20;78.60;;;;;;4966921;28;119874;-89
2020/12/21 12:57:46;;;;;;;;;;;8.20;78.60;;;;;;4966699;28;119114;-89
2020/12/21 13:00:11;;;;;;;;;;;8.20;78.70;;;;;;4967752;28;117655;-89
2020/12/21 13:02:37;;;;;;;;;;;8.20;78.60;;;;;;4967471;28;117804;-89
2020/12/21 13:05:03;;;;;;;;;;;8.20;78.60;;;;;;4966662;28;120702;-89
2020/12/21 13:07:28;;;;;;;;;;;8.20;78.60;;;;;;4966471;28;119761;-89
2020/12/21 13:09:54;;;;;;;;;;;8.20;78.50;;;;;;4967762;28;117581;-89
2020/12/21 13:12:19;;;;;;;;;;;8.20;78.40;;;;;;4967857;28;117541;-89
2020/12/21 13:14:45;;;;;;;;;;;8.20;78.40;;;;;;4967371;28;120490;-89
2020/12/21 13:17:10;;;;;;;;;;;8.20;78.40;;;;;;4966560;28;119287;-89
2020/12/21 13:19:36;;;;;;;;;;;8.20;78.40;;;;;;4967264;28;117538;-89
2020/12/21 13:22:02;;;;;;;;;;;8.20;78.30;;;;;;4967795;28;117794;-89
2020/12/21 13:24:28;;;;;;;;;;;8.20;78.40;;;;;;4966627;28;120453;-89
2020/12/21 13:26:53;;;;;;;;;;;8.20;78.30;;;;;;4965579;28;118958;-89
2020/12/21 13:29:19;;;;;;;;;;;8.20;78.40;;;;;;4967274;28;117928;-89
2020/12/21 13:31:46;;;;;;;;;;;8.20;78.40;;;;;;4967868;28;117358;-89
2020/12/21 13:34:11;;;;;;;;;;;8.20;78.30;;;;;;4950062;28;120952;-89
2020/12/21 13:36:37;;;;;;;;;;;8.20;78.30;;;;;;4966023;28;119901;-89
2020/12/21 13:39:02;;;;;;;;;;;8.20;78.40;;;;;;4967326;28;117592;-89
2020/12/21 13:41:28;;;;;;;;;;;8.20;78.40;;;;;;4967679;28;117103;-89
2020/12/21 13:43:53;;;;;;;;;;;8.20;78.40;;;;;;4966378;28;121323;-89
2020/12/21 13:46:19;;;;;;;;;;;8.20;78.40;;;;;;4965993;28;120358;-89
2020/12/21 13:48:44;;;;;;;;;;;8.20;78.40;;;;;;4967343;28;117637;-90
2020/12/21 13:51:10;;;;;;;;;;;8.20;78.50;;;;;;4966784;28;117912;-89
2020/12/21 13:53:36;;;;;;;;;;;8.20;78.50;;;;;;4966152;28;120118;-89
2020/12/21 13:56:04;;;;;;;;;;;8.20;78.60;;;;;;4968522;28;118689;-89
2020/12/21 13:58:29;;;;;;;;;;;8.20;78.50;;;;;;4953944;28;117554;-89
2020/12/21 14:00:55;;;;;;;;;;;8.20;78.50;;;;;;4970878;28;117854;-89
2020/12/21 14:03:22;;;;;;;;;;;8.20;78.50;;;;;;4969555;28;121285;-89
2020/12/21 14:05:47;;;;;;;;;;;8.20;78.60;;;;;;4969514;28;120787;-89
2020/12/21 14:08:13;;;;;;;;;;;8.20;78.50;;;;;;4970597;28;117585;-89